Aviation Digital Data Service (ADDS)

Output produced by METARs form (1805 UTC 31 March 2015)
found at http://aviationweather.gov/adds/metars/
 
KCLE 311737Z 3118/0124 36012KT P6SM OVC008 
     TEMPO 3118/3121 SCT008 OVC025 
     FM312100 35010KT P6SM SCT008 BKN025 
     FM312300 32005KT P6SM BKN035 
     FM010500 21004KT P6SM SCT250